KAFO/AFO METAR and TAF weather

Enter ICAO airport designator
Station Type Date Time Source
KAFO METAR 2019/04/18 20:15 UTC NOAA

KAFO 182015Z AUTO 35005KT 10SM CLR 11/M01 A3035 RMK AO2


Station Type Date Time Source
KAFO Decoded METAR 2019/04/18 20:15 UTC NOAA

Station name not available
Apr 18, 2019 - 04:15 PM EDT / 2019.04.18 2015 UTC
Wind: from the N (350 degrees) at 6 MPH (5 KT):0
Visibility: 10 mile(s):0
Sky conditions: clear
Temperature: 51 F (11 C)
Dew Point: 30 F (-1 C)
Relative Humidity: 43%
Pressure (altimeter): 30.35 in. Hg (1027 hPa)
ob: KAFO 182015Z AUTO 35005KT 10SM CLR 11/M01 A3035 RMK AO2
cycle: 20

Station Type Date Time Source
KAFO TAF UTC NOAA

Error!

Example: see airport list